createdAt,value
2023-04-19T00:00:54.036Z,50.57
2023-04-19T00:03:24.785Z,50.67
2023-04-19T00:05:54.116Z,50.60
2023-04-19T00:08:21.613Z,50.66
2023-04-19T00:10:49.154Z,50.58
2023-04-19T00:13:16.685Z,50.59
2023-04-19T00:15:44.256Z,50.72
2023-04-19T00:18:11.749Z,50.68
2023-04-19T00:20:39.834Z,50.65
2023-04-19T00:23:07.373Z,50.58
2023-04-19T00:25:34.942Z,50.66
2023-04-19T00:28:02.437Z,50.67
2023-04-19T00:30:29.990Z,50.68
2023-04-19T00:32:59.110Z,50.56
2023-04-19T00:35:26.744Z,50.65
2023-04-19T00:37:54.310Z,50.75
2023-04-19T00:40:21.878Z,50.81
2023-04-19T00:42:49.362Z,50.93
2023-04-19T00:45:16.961Z,50.83
2023-04-19T00:47:44.558Z,50.89
2023-04-19T00:50:13.403Z,50.92
2023-04-19T00:52:41.972Z,50.87
2023-04-19T00:55:10.127Z,50.96
2023-04-19T00:57:38.164Z,50.87
2023-04-19T01:00:08.785Z,50.91
2023-04-19T01:02:36.492Z,50.89
2023-04-19T01:05:04.650Z,51.12
2023-04-19T01:07:35.059Z,51.24
2023-04-19T01:10:03.405Z,51.08
2023-04-19T01:12:30.883Z,51.12
2023-04-19T01:14:58.395Z,51.36
2023-04-19T01:17:27.107Z,51.19
2023-04-19T01:20:08.570Z,51.26
2023-04-19T01:22:37.863Z,51.23
2023-04-19T01:25:07.180Z,51.29
2023-04-19T01:27:35.643Z,51.11
2023-04-19T01:30:03.256Z,51.17
2023-04-19T01:32:30.806Z,51.21
2023-04-19T01:34:58.429Z,51.44
2023-04-19T01:37:26.039Z,51.41
2023-04-19T01:39:53.755Z,51.42
2023-04-19T01:42:21.321Z,51.48
2023-04-19T01:44:48.800Z,51.49
2023-04-19T01:47:16.296Z,51.58
2023-04-19T01:49:43.810Z,51.62
2023-04-19T01:52:11.403Z,51.56
2023-04-19T01:54:39.000Z,51.59
2023-04-19T01:57:06.495Z,51.62
2023-04-19T01:59:34.030Z,51.58
2023-04-19T02:02:01.635Z,51.47
2023-04-19T02:04:29.292Z,51.61
2023-04-19T02:06:56.792Z,51.69
2023-04-19T02:09:24.344Z,51.69
2023-04-19T02:11:51.892Z,51.53
2023-04-19T02:14:19.363Z,51.56
2023-04-19T02:16:46.915Z,51.47
2023-04-19T02:19:14.489Z,51.50
2023-04-19T02:21:42.085Z,51.65
2023-04-19T02:24:09.655Z,51.84
2023-04-19T02:26:37.373Z,51.77
2023-04-19T02:29:07.087Z,51.99
2023-04-19T02:31:35.978Z,51.83
2023-04-19T02:34:03.501Z,52.04
2023-04-19T02:36:31.010Z,52.20
2023-04-19T02:38:59.292Z,51.99
2023-04-19T02:41:26.865Z,52.05
2023-04-19T02:43:54.383Z,52.03
2023-04-19T02:46:21.988Z,51.98
2023-04-19T02:48:49.540Z,51.97
2023-04-19T02:51:17.668Z,51.90
2023-04-19T02:53:45.361Z,52.09
2023-04-19T02:56:12.981Z,52.15
2023-04-19T02:58:40.604Z,52.11
2023-04-19T03:01:08.505Z,52.07
2023-04-19T03:03:36.556Z,52.15
2023-04-19T03:06:04.389Z,52.42
2023-04-19T03:08:32.959Z,52.18
2023-04-19T03:11:00.579Z,52.25
2023-04-19T03:13:28.060Z,52.32
2023-04-19T03:15:55.752Z,52.74
2023-04-19T03:18:23.764Z,52.37
2023-04-19T03:20:53.314Z,52.14
2023-04-19T03:23:21.194Z,52.31
2023-04-19T03:25:51.107Z,52.25
2023-04-19T03:28:29.088Z,52.33
2023-04-19T03:31:16.425Z,52.48
2023-04-19T03:33:45.197Z,52.69
2023-04-19T03:36:14.172Z,52.79
2023-04-19T03:38:44.494Z,52.59
2023-04-19T03:41:27.453Z,52.58
2023-04-19T03:44:21.001Z,52.58
2023-04-19T03:46:49.042Z,52.60
2023-04-19T03:49:20.884Z,52.58
2023-04-19T03:51:53.577Z,52.67
2023-04-19T03:54:21.121Z,52.33
2023-04-19T03:56:48.667Z,52.42
2023-04-19T03:59:16.343Z,52.42
2023-04-19T04:01:44.169Z,52.50
2023-04-19T04:04:12.616Z,52.52
2023-04-19T04:06:40.744Z,52.59
2023-04-19T04:09:08.381Z,52.54
2023-04-19T04:11:35.955Z,52.56
2023-04-19T04:14:04.394Z,52.76
2023-04-19T04:16:35.277Z,52.49
2023-04-19T04:19:02.815Z,52.43
2023-04-19T04:21:33.298Z,52.70
2023-04-19T04:24:04.191Z,52.47
2023-04-19T04:26:40.877Z,52.44
2023-04-19T04:29:16.631Z,52.45
2023-04-19T04:31:45.452Z,52.46
2023-04-19T04:34:14.795Z,52.58
2023-04-19T04:36:50.572Z,52.16
2023-04-19T04:39:19.797Z,52.64
2023-04-19T04:41:50.006Z,52.45
2023-04-19T04:44:17.736Z,52.77
2023-04-19T04:46:46.956Z,52.65
2023-04-19T04:49:19.625Z,52.57
2023-04-19T04:51:47.938Z,52.67
2023-04-19T04:54:15.981Z,52.61
2023-04-19T04:56:44.751Z,53.20
2023-04-19T04:59:13.211Z,53.39
2023-04-19T05:01:44.547Z,52.99
2023-04-19T05:04:12.923Z,52.98
2023-04-19T05:06:41.172Z,52.98
2023-04-19T05:09:11.388Z,53.20
2023-04-19T05:11:38.964Z,53.27
2023-04-19T05:14:06.548Z,53.02
2023-04-19T05:16:34.888Z,53.02
2023-04-19T05:19:03.634Z,53.00
2023-04-19T05:21:35.718Z,53.02
2023-04-19T05:24:05.906Z,52.98
2023-04-19T05:26:35.549Z,52.55
2023-04-19T05:29:04.424Z,52.66
2023-04-19T05:31:54.382Z,52.75
2023-04-19T05:34:26.331Z,52.62
2023-04-19T05:36:55.844Z,52.56
2023-04-19T05:39:23.380Z,52.55
2023-04-19T05:41:52.536Z,52.40
2023-04-19T05:44:20.055Z,52.47
2023-04-19T05:46:47.593Z,52.51
2023-04-19T05:49:20.855Z,52.11
2023-04-19T05:52:17.492Z,51.98
2023-04-19T05:54:51.334Z,52.19
2023-04-19T05:57:18.777Z,52.00
2023-04-19T05:59:46.501Z,52.24
2023-04-19T06:02:17.829Z,52.04
2023-04-19T06:04:45.919Z,52.11
2023-04-19T06:07:27.292Z,52.10
2023-04-19T06:09:59.099Z,52.00
2023-04-19T06:12:27.336Z,51.99
2023-04-19T06:14:54.848Z,51.77
2023-04-19T06:17:24.973Z,51.78
2023-04-19T06:19:53.751Z,51.81
2023-04-19T06:22:21.481Z,51.52
2023-04-19T06:24:49.132Z,51.68
2023-04-19T06:27:17.386Z,51.56
2023-04-19T06:29:44.992Z,51.44
2023-04-19T06:32:12.558Z,51.51
2023-04-19T06:34:40.127Z,51.48
2023-04-19T06:37:07.680Z,51.54
2023-04-19T06:39:35.406Z,51.66
2023-04-19T06:42:03.666Z,51.92
2023-04-19T06:44:31.290Z,52.24
2023-04-19T06:46:58.768Z,51.83
2023-04-19T06:49:26.423Z,51.81
2023-04-19T06:51:54.242Z,51.51
2023-04-19T06:54:22.125Z,51.37
2023-04-19T06:56:50.381Z,51.41
2023-04-19T06:59:20.558Z,51.39
2023-04-19T07:01:48.836Z,51.21
2023-04-19T07:04:17.879Z,51.44
2023-04-19T07:06:49.784Z,51.58
2023-04-19T07:09:18.678Z,51.72
2023-04-19T07:11:48.576Z,51.66
2023-04-19T07:14:16.595Z,51.63
2023-04-19T07:16:44.319Z,51.21
2023-04-19T07:19:12.690Z,51.22
2023-04-19T07:21:40.421Z,51.27
2023-04-19T07:24:08.020Z,50.70
2023-04-19T07:26:35.554Z,50.46
2023-04-19T07:29:03.037Z,50.48
2023-04-19T07:31:30.595Z,50.51
2023-04-19T07:33:58.068Z,50.46
2023-04-19T07:36:25.579Z,50.62
2023-04-19T07:38:53.101Z,50.55
2023-04-19T07:41:20.663Z,50.22
2023-04-19T07:43:48.143Z,50.21
2023-04-19T07:46:16.295Z,50.08
2023-04-19T07:48:44.034Z,50.29
2023-04-19T07:51:13.370Z,50.20
2023-04-19T07:53:42.179Z,50.36
2023-04-19T07:56:12.876Z,50.14
2023-04-19T07:58:41.283Z,50.13
2023-04-19T08:01:09.041Z,50.17
2023-04-19T08:03:37.828Z,50.09
2023-04-19T08:06:09.606Z,50.13
2023-04-19T08:08:37.381Z,50.11
2023-04-19T08:11:06.185Z,50.25
2023-04-19T08:13:33.848Z,50.13
2023-04-19T08:18:33.955Z,49.59
2023-04-19T08:21:01.628Z,49.00
2023-04-19T08:23:34.898Z,48.72
2023-04-19T08:26:09.001Z,48.49
2023-04-19T08:28:36.512Z,48.42
2023-04-19T08:31:07.648Z,48.32
2023-04-19T08:33:35.200Z,48.18
2023-04-19T08:36:02.742Z,48.17
2023-04-19T08:38:30.309Z,48.34
2023-04-19T08:40:57.963Z,48.60
2023-04-19T08:43:33.211Z,48.67
2023-04-19T08:46:02.281Z,48.61
2023-04-19T08:48:30.172Z,48.63
2023-04-19T08:51:04.889Z,48.88
2023-04-19T08:53:36.879Z,48.65
2023-04-19T08:56:18.035Z,48.87
2023-04-19T09:04:00.364Z,48.79
2023-04-19T09:06:39.649Z,48.54
2023-04-19T09:12:01.553Z,48.49
2023-04-19T09:14:29.815Z,48.44
2023-04-19T09:17:17.190Z,48.41
2023-04-19T09:19:49.948Z,48.19
2023-04-19T09:22:18.769Z,47.47
2023-04-19T09:25:22.814Z,47.39
2023-04-19T09:27:36.441Z,47.19
2023-04-19T09:30:06.194Z,47.24
2023-04-19T09:32:48.801Z,47.16
2023-04-19T09:35:16.891Z,47.23
2023-04-19T09:38:05.410Z,46.90
2023-04-19T09:40:34.577Z,46.58
2023-04-19T09:43:23.036Z,46.64
2023-04-19T09:45:51.624Z,46.81
2023-04-19T09:48:19.131Z,46.50
2023-04-19T09:51:00.878Z,46.53
2023-04-19T09:53:34.876Z,46.43
2023-04-19T09:56:04.172Z,46.32
2023-04-19T09:58:46.335Z,45.98
2023-04-19T10:01:20.146Z,45.97
2023-04-19T10:03:50.958Z,45.92
2023-04-19T10:08:53.463Z,45.31
2023-04-19T10:11:31.404Z,45.17
2023-04-19T10:14:01.616Z,44.62
2023-04-19T10:16:30.779Z,44.54
2023-04-19T10:18:59.040Z,44.76
2023-04-19T10:21:28.766Z,44.73
2023-04-19T10:23:57.253Z,44.51
2023-04-19T10:26:24.835Z,44.59
2023-04-19T10:28:58.631Z,44.68
2023-04-19T10:31:26.700Z,44.78
2023-04-19T10:33:54.899Z,44.45
2023-04-19T10:36:22.519Z,44.57
2023-04-19T10:38:55.514Z,44.91
2023-04-19T10:41:23.260Z,44.63
2023-04-19T10:43:57.560Z,44.54
2023-04-19T10:46:26.019Z,44.52
2023-04-19T10:48:57.300Z,44.68
2023-04-19T10:51:29.661Z,45.20
2023-04-19T10:54:01.982Z,45.66
2023-04-19T10:56:35.850Z,46.00
2023-04-19T10:59:03.298Z,46.61
2023-04-19T11:01:46.173Z,46.29
2023-04-19T11:04:17.451Z,46.66
2023-04-19T11:06:51.383Z,46.67
2023-04-19T11:09:34.243Z,46.47
2023-04-19T11:12:08.500Z,46.77
2023-04-19T11:14:45.700Z,46.93
2023-04-19T11:17:26.889Z,47.29
2023-04-19T11:19:58.397Z,47.41
2023-04-19T11:22:33.919Z,47.88
2023-04-19T11:25:19.542Z,47.81
2023-04-19T11:27:49.850Z,48.27
2023-04-19T11:30:22.165Z,48.17
2023-04-19T11:32:54.787Z,48.22
2023-04-19T11:35:26.943Z,48.60
2023-04-19T11:37:56.660Z,49.05
2023-04-19T11:40:28.072Z,49.79
2023-04-19T11:43:00.848Z,50.17
2023-04-19T11:45:38.207Z,50.88
2023-04-19T11:48:14.916Z,50.99
2023-04-19T11:50:44.670Z,51.50
2023-04-19T11:53:22.224Z,51.20
2023-04-19T11:55:53.109Z,51.63
2023-04-19T11:58:29.783Z,51.71
2023-04-19T12:01:12.461Z,51.77
2023-04-19T12:03:48.299Z,51.71
2023-04-19T12:06:25.701Z,51.99
2023-04-19T12:08:55.508Z,51.87
2023-04-19T12:11:46.519Z,51.99
2023-04-19T12:14:19.750Z,51.99
2023-04-19T12:17:16.669Z,52.08
2023-04-19T12:19:47.368Z,52.06
2023-04-19T12:22:20.684Z,52.51
2023-04-19T12:24:51.902Z,52.79
2023-04-19T12:27:19.742Z,53.19
2023-04-19T12:29:47.250Z,53.42
2023-04-19T12:32:16.013Z,53.31
2023-04-19T12:34:44.085Z,53.69
2023-04-19T12:37:11.565Z,53.47
2023-04-19T12:39:39.356Z,53.28
2023-04-19T12:42:06.897Z,53.07
2023-04-19T12:44:34.421Z,53.16
2023-04-19T12:47:02.109Z,53.01
2023-04-19T12:49:29.698Z,53.71
2023-04-19T12:51:57.483Z,53.28
2023-04-19T12:54:25.364Z,52.83
2023-04-19T12:56:53.390Z,52.52
2023-04-19T12:59:22.033Z,52.23
2023-04-19T13:01:49.785Z,52.09
2023-04-19T13:04:17.623Z,51.98
2023-04-19T13:06:45.829Z,51.78
2023-04-19T13:09:15.077Z,52.02
2023-04-19T13:11:42.785Z,52.01
2023-04-19T13:14:10.488Z,51.81
2023-04-19T13:16:37.981Z,51.95
2023-04-19T13:19:05.708Z,51.87
2023-04-19T13:21:33.169Z,51.80
2023-04-19T13:24:00.739Z,51.36
2023-04-19T13:26:28.520Z,51.34
2023-04-19T13:28:56.478Z,51.12
2023-04-19T13:31:26.554Z,50.85
2023-04-19T13:33:54.780Z,51.20
2023-04-19T13:36:22.307Z,51.05
2023-04-19T13:38:49.893Z,50.64
2023-04-19T13:41:17.485Z,51.09
2023-04-19T13:43:45.517Z,50.82
2023-04-19T13:46:13.306Z,50.74
2023-04-19T13:48:40.827Z,50.72
2023-04-19T13:51:08.354Z,50.54
2023-04-19T13:53:35.902Z,49.92
2023-04-19T13:56:03.835Z,50.35
2023-04-19T13:58:31.762Z,50.02
2023-04-19T14:00:59.300Z,49.25
2023-04-19T14:03:27.161Z,49.26
2023-04-19T14:05:54.849Z,49.10
2023-04-19T14:08:22.567Z,49.20
2023-04-19T14:10:50.847Z,49.26
2023-04-19T14:13:18.483Z,49.18
2023-04-19T14:15:46.592Z,49.37
2023-04-19T14:18:14.150Z,49.13
2023-04-19T14:20:41.683Z,49.09
2023-04-19T14:23:09.240Z,48.78
2023-04-19T14:25:36.790Z,48.38
2023-04-19T14:28:04.549Z,48.55
2023-04-19T14:30:32.226Z,48.21
2023-04-19T14:32:59.760Z,48.20
2023-04-19T14:35:27.749Z,48.09
2023-04-19T14:37:55.349Z,48.06
2023-04-19T14:40:23.579Z,48.11
2023-04-19T14:42:51.053Z,48.24
2023-04-19T14:45:18.795Z,48.42
2023-04-19T14:47:46.480Z,48.10
2023-04-19T14:50:13.981Z,48.07
2023-04-19T14:52:41.546Z,47.51
2023-04-19T14:55:10.017Z,47.67
2023-04-19T14:57:37.515Z,47.17
2023-04-19T15:00:05.914Z,47.11
2023-04-19T15:02:33.575Z,47.36
2023-04-19T15:05:01.290Z,46.88
2023-04-19T15:07:28.942Z,46.85
2023-04-19T15:09:56.746Z,47.23
2023-04-19T15:12:24.236Z,47.08
2023-04-19T15:14:51.707Z,47.10
2023-04-19T15:17:19.528Z,46.93
2023-04-19T15:19:47.097Z,46.78
2023-04-19T15:22:14.663Z,47.04
2023-04-19T15:24:42.145Z,47.16
2023-04-19T15:27:09.627Z,47.18
2023-04-19T15:29:39.334Z,47.27
2023-04-19T15:32:07.002Z,47.27
2023-04-19T15:34:34.549Z,47.22
2023-04-19T15:37:02.629Z,47.10
2023-04-19T15:39:30.142Z,46.81
2023-04-19T15:41:58.529Z,46.57
2023-04-19T15:44:26.020Z,46.77
2023-04-19T15:46:53.605Z,46.65
2023-04-19T15:49:21.344Z,45.84
2023-04-19T15:51:48.909Z,46.03
2023-04-19T15:54:16.533Z,45.88
2023-04-19T15:56:44.046Z,44.99
2023-04-19T15:59:11.585Z,44.56
2023-04-19T16:01:39.200Z,44.55
2023-04-19T16:04:07.075Z,43.96
2023-04-19T16:06:35.041Z,43.68
2023-04-19T16:09:02.528Z,43.60
2023-04-19T16:11:30.137Z,43.33
2023-04-19T16:13:57.654Z,43.11
2023-04-19T16:16:28.057Z,43.03
2023-04-19T16:18:55.898Z,42.99
2023-04-19T16:21:23.403Z,43.55
2023-04-19T16:23:50.920Z,43.31
2023-04-19T16:26:18.393Z,43.41
2023-04-19T16:28:46.438Z,43.08
2023-04-19T16:31:13.995Z,40.01
2023-04-19T16:33:41.512Z,38.56
2023-04-19T16:36:08.997Z,37.75
2023-04-19T16:38:36.576Z,36.34
2023-04-19T16:41:05.805Z,36.05
2023-04-19T16:43:33.408Z,36.09
2023-04-19T16:46:00.985Z,35.92
2023-04-19T16:48:28.578Z,35.64
2023-04-19T16:50:56.095Z,35.68
2023-04-19T16:53:23.606Z,35.79
2023-04-19T16:55:51.127Z,34.49
2023-04-19T16:58:18.822Z,34.10
2023-04-19T17:00:46.444Z,34.16
2023-04-19T17:03:14.366Z,34.32
2023-04-19T17:05:41.949Z,33.62
2023-04-19T17:08:11.058Z,32.96
2023-04-19T17:10:38.643Z,33.31
2023-04-19T17:13:06.170Z,33.64
2023-04-19T17:15:33.801Z,33.68
2023-04-19T17:18:01.921Z,33.62
2023-04-19T17:20:29.419Z,33.22
2023-04-19T17:22:56.913Z,33.00
2023-04-19T17:25:24.398Z,33.17
2023-04-19T17:27:51.974Z,33.43
2023-04-19T17:30:19.541Z,33.24
2023-04-19T17:32:47.091Z,33.53
2023-04-19T17:35:15.761Z,33.64
2023-04-19T17:37:43.603Z,33.50
2023-04-19T17:40:11.981Z,33.02
2023-04-19T17:42:39.467Z,32.68
2023-04-19T17:45:10.942Z,32.72
2023-04-19T17:47:39.753Z,32.64
2023-04-19T17:50:13.048Z,32.39
2023-04-19T17:52:40.629Z,32.96
2023-04-19T17:55:08.777Z,32.89
2023-04-19T17:57:36.404Z,33.22
2023-04-19T18:00:06.880Z,33.59
2023-04-19T18:02:36.828Z,33.52
2023-04-19T18:05:04.962Z,33.95
2023-04-19T18:07:32.484Z,34.12
2023-04-19T18:10:00.213Z,33.63
2023-04-19T18:12:27.882Z,33.92
2023-04-19T18:14:57.558Z,34.19
2023-04-19T18:17:25.455Z,34.08
2023-04-19T18:19:53.037Z,33.97
2023-04-19T18:22:20.582Z,34.37
2023-04-19T18:24:51.139Z,34.34
2023-04-19T18:27:18.653Z,34.19
2023-04-19T18:29:52.320Z,34.29
2023-04-19T18:32:21.700Z,34.27
2023-04-19T18:34:52.427Z,34.17
2023-04-19T18:37:19.947Z,34.69
2023-04-19T18:39:47.552Z,34.94
2023-04-19T18:42:16.335Z,34.62
2023-04-19T18:44:53.557Z,34.78
2023-04-19T18:47:22.690Z,35.07
2023-04-19T18:50:03.480Z,34.89
2023-04-19T18:52:35.463Z,35.21
2023-04-19T18:55:07.762Z,35.45
2023-04-19T18:57:35.917Z,35.36
2023-04-19T19:00:06.323Z,35.73
2023-04-19T19:02:36.005Z,35.91
2023-04-19T19:05:07.514Z,35.92
2023-04-19T19:07:37.501Z,35.80
2023-04-19T19:10:17.332Z,36.16
2023-04-19T19:12:48.971Z,36.07
2023-04-19T19:15:16.871Z,35.79
2023-04-19T19:17:49.305Z,36.01
2023-04-19T19:20:19.500Z,36.12
2023-04-19T19:22:47.166Z,36.43
2023-04-19T19:25:14.851Z,36.30
2023-04-19T19:27:58.173Z,36.08
2023-04-19T19:30:33.483Z,36.27
2023-04-19T19:33:02.348Z,36.19
2023-04-19T19:35:30.002Z,36.61
2023-04-19T19:37:57.504Z,36.56
2023-04-19T19:40:25.057Z,36.32
2023-04-19T19:42:52.572Z,36.38
2023-04-19T19:45:20.582Z,36.83
2023-04-19T19:47:50.060Z,36.73
2023-04-19T19:52:48.596Z,36.81
2023-04-19T19:55:16.154Z,37.33
2023-04-19T20:00:36.445Z,37.56
2023-04-19T20:03:02.403Z,37.70
2023-04-19T20:05:32.879Z,37.73
2023-04-19T20:08:13.058Z,38.17
2023-04-19T20:10:42.845Z,38.41
2023-04-19T20:13:12.817Z,38.24
2023-04-19T20:15:40.993Z,38.30
2023-04-19T20:18:08.600Z,38.46
2023-04-19T20:20:37.334Z,38.39
2023-04-19T20:23:05.732Z,39.01
2023-04-19T20:25:33.341Z,38.95
2023-04-19T20:28:01.877Z,39.01
2023-04-19T20:30:29.370Z,38.92
2023-04-19T20:32:57.119Z,39.29
2023-04-19T20:35:24.663Z,38.94
2023-04-19T20:37:52.135Z,39.46
2023-04-19T20:40:19.955Z,39.45
2023-04-19T20:42:47.491Z,39.84
2023-04-19T20:45:15.061Z,39.50
2023-04-19T20:47:43.059Z,39.59
2023-04-19T20:50:11.113Z,39.93
2023-04-19T20:52:38.781Z,39.81
2023-04-19T20:55:07.783Z,39.61
2023-04-19T20:57:35.406Z,39.78
2023-04-19T21:00:04.461Z,39.87
2023-04-19T21:02:32.167Z,39.87
2023-04-19T21:04:59.825Z,39.95
2023-04-19T21:07:27.362Z,39.96
2023-04-19T21:09:54.876Z,40.36
2023-04-19T21:12:22.358Z,40.27
2023-04-19T21:14:52.210Z,40.48
2023-04-19T21:17:20.452Z,40.09
2023-04-19T21:19:48.025Z,40.11
2023-04-19T21:22:15.507Z,40.32
2023-04-19T21:24:43.202Z,40.14
2023-04-19T21:27:10.672Z,39.85
2023-04-19T21:29:38.187Z,40.02
2023-04-19T21:32:05.813Z,39.93
2023-04-19T21:34:34.153Z,39.94
2023-04-19T21:37:01.664Z,40.21
2023-04-19T21:39:29.172Z,40.05
2023-04-19T21:41:57.386Z,40.03
2023-04-19T21:44:24.877Z,40.27
2023-04-19T21:46:52.459Z,40.45
2023-04-19T21:49:20.064Z,40.52
2023-04-19T21:51:47.581Z,40.65
2023-04-19T21:54:26.685Z,40.69
2023-04-19T21:56:58.870Z,40.68
2023-04-19T21:59:26.404Z,40.82
2023-04-19T22:01:54.096Z,40.92
2023-04-19T22:04:22.022Z,41.29
2023-04-19T22:06:49.528Z,41.42
2023-04-19T22:09:17.307Z,41.42
2023-04-19T22:11:46.001Z,41.41
2023-04-19T22:14:13.580Z,41.33
2023-04-19T22:16:42.088Z,41.51
2023-04-19T22:19:10.690Z,41.76
2023-04-19T22:21:38.160Z,41.88
2023-04-19T22:24:06.216Z,42.21
2023-04-19T22:26:34.313Z,42.08
2023-04-19T22:29:01.848Z,42.18
2023-04-19T22:31:29.352Z,42.50
2023-04-19T22:33:57.074Z,42.60
2023-04-19T22:36:25.598Z,42.64
2023-04-19T22:38:53.101Z,42.99
2023-04-19T22:41:20.655Z,42.98
2023-04-19T22:43:48.152Z,43.15
2023-04-19T22:46:16.053Z,42.96
2023-04-19T22:48:43.674Z,43.00
2023-04-19T22:51:11.145Z,43.17
2023-04-19T22:53:38.641Z,43.32
2023-04-19T22:56:06.352Z,43.11
2023-04-19T22:58:33.829Z,43.09
2023-04-19T23:01:02.551Z,43.20
2023-04-19T23:03:30.185Z,43.16
2023-04-19T23:05:58.233Z,43.25
2023-04-19T23:08:26.158Z,43.22
2023-04-19T23:10:53.726Z,43.52
2023-04-19T23:13:21.336Z,43.64
2023-04-19T23:15:48.943Z,43.74
2023-04-19T23:18:17.486Z,43.80
2023-04-19T23:20:45.019Z,43.53
2023-04-19T23:23:12.559Z,43.68
2023-04-19T23:25:40.236Z,43.63
2023-04-19T23:28:08.087Z,43.92
2023-04-19T23:30:36.326Z,43.69
2023-04-19T23:33:03.949Z,43.67
2023-04-19T23:35:31.478Z,43.75
2023-04-19T23:37:59.559Z,43.92
2023-04-19T23:40:27.046Z,44.06
2023-04-19T23:42:54.550Z,44.11
2023-04-19T23:45:22.404Z,44.39
2023-04-19T23:47:50.412Z,43.97
2023-04-19T23:50:17.952Z,44.19
2023-04-19T23:52:45.455Z,44.36
2023-04-19T23:55:13.198Z,44.28
2023-04-19T23:57:41.029Z,44.42
